sensor_id;sensor_type;location;lat;lon;timestamp;temperature;humidity
67555;HTU21D;54385;53.516;49.456;2022-12-18T00:01:15;-0.70;76.84
67555;HTU21D;54385;53.516;49.456;2022-12-18T00:03:42;-0.66;77.13
67555;HTU21D;54385;53.516;49.456;2022-12-18T00:06:08;-0.73;77.01
67555;HTU21D;54385;53.516;49.456;2022-12-18T00:08:35;-0.81;77.39
67555;HTU21D;54385;53.516;49.456;2022-12-18T00:11:08;-0.76;77.63
67555;HTU21D;54385;53.516;49.456;2022-12-18T00:13:36;-0.76;77.97
67555;HTU21D;54385;53.516;49.456;2022-12-18T00:16:04;-0.74;78.47
67555;HTU21D;54385;53.516;49.456;2022-12-18T00:18:31;-0.67;78.32
67555;HTU21D;54385;53.516;49.456;2022-12-18T00:21:05;-0.64;78.49
67555;HTU21D;54385;53.516;49.456;2022-12-18T00:23:33;-0.56;78.60
67555;HTU21D;54385;53.516;49.456;2022-12-18T00:26:00;-0.57;78.47
67555;HTU21D;54385;53.516;49.456;2022-12-18T00:28:27;-0.60;78.51
67555;HTU21D;54385;53.516;49.456;2022-12-18T00:31:04;-0.59;77.80
67555;HTU21D;54385;53.516;49.456;2022-12-18T00:33:31;-0.53;77.43
67555;HTU21D;54385;53.516;49.456;2022-12-18T00:36:08;-0.58;76.78
67555;HTU21D;54385;53.516;49.456;2022-12-18T00:38:36;-0.55;76.89
67555;HTU21D;54385;53.516;49.456;2022-12-18T00:41:03;-0.51;76.42
67555;HTU21D;54385;53.516;49.456;2022-12-18T00:43:30;-0.42;76.78
67555;HTU21D;54385;53.516;49.456;2022-12-18T00:45:56;-0.38;76.28
67555;HTU21D;54385;53.516;49.456;2022-12-18T00:48:22;-0.35;76.64
67555;HTU21D;54385;53.516;49.456;2022-12-18T00:50:49;-0.36;76.34
67555;HTU21D;54385;53.516;49.456;2022-12-18T00:53:16;-0.42;76.14
67555;HTU21D;54385;53.516;49.456;2022-12-18T00:55:43;-0.43;76.41
67555;HTU21D;54385;53.516;49.456;2022-12-18T00:58:11;-0.39;76.95
67555;HTU21D;54385;53.516;49.456;2022-12-18T01:00:38;-0.42;76.69
67555;HTU21D;54385;53.516;49.456;2022-12-18T01:03:05;-0.47;77.08
67555;HTU21D;54385;53.516;49.456;2022-12-18T01:05:32;-0.46;77.48
67555;HTU21D;54385;53.516;49.456;2022-12-18T01:07:59;-0.43;78.24
67555;HTU21D;54385;53.516;49.456;2022-12-18T01:10:26;-0.43;78.67
67555;HTU21D;54385;53.516;49.456;2022-12-18T01:12:52;-0.45;78.54
67555;HTU21D;54385;53.516;49.456;2022-12-18T01:15:19;-0.47;78.89
67555;HTU21D;54385;53.516;49.456;2022-12-18T01:17:46;-0.41;79.36
67555;HTU21D;54385;53.516;49.456;2022-12-18T01:20:13;-0.35;79.22
67555;HTU21D;54385;53.516;49.456;2022-12-18T01:22:39;-0.30;78.78
67555;HTU21D;54385;53.516;49.456;2022-12-18T01:25:06;-0.40;79.62
67555;HTU21D;54385;53.516;49.456;2022-12-18T01:27:33;-0.44;80.36
67555;HTU21D;54385;53.516;49.456;2022-12-18T01:30:00;-0.46;80.43
67555;HTU21D;54385;53.516;49.456;2022-12-18T01:32:29;-0.46;80.38
67555;HTU21D;54385;53.516;49.456;2022-12-18T01:34:56;-0.51;80.69
67555;HTU21D;54385;53.516;49.456;2022-12-18T01:37:22;-0.60;80.81
67555;HTU21D;54385;53.516;49.456;2022-12-18T01:39:49;-0.57;81.07
67555;HTU21D;54385;53.516;49.456;2022-12-18T01:42:17;-0.53;81.13
67555;HTU21D;54385;53.516;49.456;2022-12-18T01:48:02;-0.66;81.17
67555;HTU21D;54385;53.516;49.456;2022-12-18T01:50:39;-0.76;81.48
67555;HTU21D;54385;53.516;49.456;2022-12-18T01:53:11;-0.86;82.12
67555;HTU21D;54385;53.516;49.456;2022-12-18T01:55:50;-0.95;82.74
67555;HTU21D;54385;53.516;49.456;2022-12-18T01:58:19;-0.98;83.24
67555;HTU21D;54385;53.516;49.456;2022-12-18T02:00:46;-0.98;82.83
67555;HTU21D;54385;53.516;49.456;2022-12-18T02:03:12;-0.96;82.36
67555;HTU21D;54385;53.516;49.456;2022-12-18T02:05:46;-1.10;82.42
67555;HTU21D;54385;53.516;49.456;2022-12-18T02:08:29;-1.03;82.71
67555;HTU21D;54385;53.516;49.456;2022-12-18T02:18:50;-1.28;82.55
67555;HTU21D;54385;53.516;49.456;2022-12-18T02:24:38;-1.28;82.65
67555;HTU21D;54385;53.516;49.456;2022-12-18T02:27:09;-1.26;82.51
67555;HTU21D;54385;53.516;49.456;2022-12-18T02:29:44;-1.21;82.80
67555;HTU21D;54385;53.516;49.456;2022-12-18T02:32:18;-1.17;82.51
67555;HTU21D;54385;53.516;49.456;2022-12-18T02:34:46;-1.19;82.20
67555;HTU21D;54385;53.516;49.456;2022-12-18T02:37:16;-1.20;82.46
67555;HTU21D;54385;53.516;49.456;2022-12-18T02:39:46;-1.12;82.78
67555;HTU21D;54385;53.516;49.456;2022-12-18T02:42:13;-1.10;82.58
67555;HTU21D;54385;53.516;49.456;2022-12-18T02:44:43;-1.02;82.35
67555;HTU21D;54385;53.516;49.456;2022-12-18T02:47:15;-1.01;81.77
67555;HTU21D;54385;53.516;49.456;2022-12-18T02:55:34;-1.13;83.09
67555;HTU21D;54385;53.516;49.456;2022-12-18T03:01:02;-1.12;83.23
67555;HTU21D;54385;53.516;49.456;2022-12-18T03:03:42;-1.10;83.30
67555;HTU21D;54385;53.516;49.456;2022-12-18T03:06:29;-1.08;83.50
67555;HTU21D;54385;53.516;49.456;2022-12-18T03:08:59;-1.02;84.45
67555;HTU21D;54385;53.516;49.456;2022-12-18T03:11:30;-0.95;84.04
67555;HTU21D;54385;53.516;49.456;2022-12-18T03:14:16;-0.85;83.65
67555;HTU21D;54385;53.516;49.456;2022-12-18T03:16:44;-0.76;83.56
67555;HTU21D;54385;53.516;49.456;2022-12-18T03:19:16;-0.79;83.58
67555;HTU21D;54385;53.516;49.456;2022-12-18T03:21:47;-0.79;83.71
67555;HTU21D;54385;53.516;49.456;2022-12-18T03:24:17;-0.71;83.76
67555;HTU21D;54385;53.516;49.456;2022-12-18T03:26:48;-0.62;83.44
67555;HTU21D;54385;53.516;49.456;2022-12-18T03:29:21;-0.67;83.52
67555;HTU21D;54385;53.516;49.456;2022-12-18T03:31:53;-0.69;84.35
67555;HTU21D;54385;53.516;49.456;2022-12-18T03:34:24;-0.65;85.00
67555;HTU21D;54385;53.516;49.456;2022-12-18T03:36:55;-0.65;84.94
67555;HTU21D;54385;53.516;49.456;2022-12-18T03:39:24;-0.58;84.98
67555;HTU21D;54385;53.516;49.456;2022-12-18T03:41:57;-0.53;85.48
67555;HTU21D;54385;53.516;49.456;2022-12-18T03:44:33;-0.46;85.32
67555;HTU21D;54385;53.516;49.456;2022-12-18T03:50:39;-0.28;84.91
67555;HTU21D;54385;53.516;49.456;2022-12-18T03:55:56;-0.26;84.68
67555;HTU21D;54385;53.516;49.456;2022-12-18T03:58:25;-0.29;85.10
67555;HTU21D;54385;53.516;49.456;2022-12-18T04:00:56;-0.27;85.51
67555;HTU21D;54385;53.516;49.456;2022-12-18T04:03:26;-0.25;85.90
67555;HTU21D;54385;53.516;49.456;2022-12-18T04:05:55;-0.22;85.96
67555;HTU21D;54385;53.516;49.456;2022-12-18T04:08:23;-0.13;86.08
67555;HTU21D;54385;53.516;49.456;2022-12-18T04:10:50;0.01;85.73
67555;HTU21D;54385;53.516;49.456;2022-12-18T04:13:33;-0.02;85.29
67555;HTU21D;54385;53.516;49.456;2022-12-18T04:16:00;0.02;85.53
67555;HTU21D;54385;53.516;49.456;2022-12-18T04:18:27;-0.01;84.90
67555;HTU21D;54385;53.516;49.456;2022-12-18T04:20:53;-0.00;84.94
67555;HTU21D;54385;53.516;49.456;2022-12-18T04:23:20;-0.00;85.08
67555;HTU21D;54385;53.516;49.456;2022-12-18T04:25:49;-0.09;85.67
67555;HTU21D;54385;53.516;49.456;2022-12-18T04:28:16;-0.08;86.22
67555;HTU21D;54385;53.516;49.456;2022-12-18T04:30:42;-0.10;86.08
67555;HTU21D;54385;53.516;49.456;2022-12-18T04:33:10;-0.12;85.89
67555;HTU21D;54385;53.516;49.456;2022-12-18T04:35:39;-0.14;86.32
67555;HTU21D;54385;53.516;49.456;2022-12-18T04:38:07;-0.15;86.76
67555;HTU21D;54385;53.516;49.456;2022-12-18T04:40:37;-0.10;86.87
67555;HTU21D;54385;53.516;49.456;2022-12-18T04:43:04;-0.08;86.66
67555;HTU21D;54385;53.516;49.456;2022-12-18T04:45:32;-0.11;86.32
67555;HTU21D;54385;53.516;49.456;2022-12-18T04:47:59;-0.06;86.70
67555;HTU21D;54385;53.516;49.456;2022-12-18T04:50:26;-0.05;86.35
67555;HTU21D;54385;53.516;49.456;2022-12-18T04:52:53;-0.00;86.42
67555;HTU21D;54385;53.516;49.456;2022-12-18T04:55:20;0.03;86.48
67555;HTU21D;54385;53.516;49.456;2022-12-18T04:57:47;0.13;86.48
67555;HTU21D;54385;53.516;49.456;2022-12-18T05:00:14;0.09;86.30
67555;HTU21D;54385;53.516;49.456;2022-12-18T05:02:40;0.15;86.57
67555;HTU21D;54385;53.516;49.456;2022-12-18T05:05:07;0.22;86.67
67555;HTU21D;54385;53.516;49.456;2022-12-18T05:07:34;0.35;86.75
67555;HTU21D;54385;53.516;49.456;2022-12-18T05:10:00;0.42;86.90
67555;HTU21D;54385;53.516;49.456;2022-12-18T05:12:26;0.44;86.77
67555;HTU21D;54385;53.516;49.456;2022-12-18T05:14:53;0.50;86.86
67555;HTU21D;54385;53.516;49.456;2022-12-18T05:17:19;0.51;86.73
67555;HTU21D;54385;53.516;49.456;2022-12-18T05:19:46;0.52;86.75
67555;HTU21D;54385;53.516;49.456;2022-12-18T05:22:12;0.53;86.79
67555;HTU21D;54385;53.516;49.456;2022-12-18T05:24:41;0.59;86.73
67555;HTU21D;54385;53.516;49.456;2022-12-18T05:27:08;0.60;86.82
67555;HTU21D;54385;53.516;49.456;2022-12-18T05:29:34;0.58;86.86
67555;HTU21D;54385;53.516;49.456;2022-12-18T05:32:01;0.55;86.99
67555;HTU21D;54385;53.516;49.456;2022-12-18T05:34:27;0.51;87.28
67555;HTU21D;54385;53.516;49.456;2022-12-18T05:36:54;0.50;87.52
67555;HTU21D;54385;53.516;49.456;2022-12-18T05:39:20;0.50;87.14
67555;HTU21D;54385;53.516;49.456;2022-12-18T05:41:46;0.50;87.22
67555;HTU21D;54385;53.516;49.456;2022-12-18T05:44:13;0.58;87.54
67555;HTU21D;54385;53.516;49.456;2022-12-18T05:46:39;0.57;87.38
67555;HTU21D;54385;53.516;49.456;2022-12-18T05:49:05;0.45;87.22
67555;HTU21D;54385;53.516;49.456;2022-12-18T05:51:32;0.45;87.26
67555;HTU21D;54385;53.516;49.456;2022-12-18T05:53:58;0.39;87.07
67555;HTU21D;54385;53.516;49.456;2022-12-18T05:56:24;0.44;87.22
67555;HTU21D;54385;53.516;49.456;2022-12-18T05:58:52;0.44;86.85
67555;HTU21D;54385;53.516;49.456;2022-12-18T06:01:24;0.47;86.88
67555;HTU21D;54385;53.516;49.456;2022-12-18T06:03:52;0.45;86.76
67555;HTU21D;54385;53.516;49.456;2022-12-18T06:06:24;0.52;86.87
67555;HTU21D;54385;53.516;49.456;2022-12-18T06:08:51;0.57;86.61
67555;HTU21D;54385;53.516;49.456;2022-12-18T06:11:23;0.54;86.19
67555;HTU21D;54385;53.516;49.456;2022-12-18T06:13:54;0.46;86.33
67555;HTU21D;54385;53.516;49.456;2022-12-18T06:16:21;0.50;86.29
67555;HTU21D;54385;53.516;49.456;2022-12-18T06:18:47;0.48;86.05
67555;HTU21D;54385;53.516;49.456;2022-12-18T06:21:14;0.34;86.49
67555;HTU21D;54385;53.516;49.456;2022-12-18T06:23:40;0.21;86.59
67555;HTU21D;54385;53.516;49.456;2022-12-18T06:26:10;0.21;87.03
67555;HTU21D;54385;53.516;49.456;2022-12-18T06:28:37;0.22;86.58
67555;HTU21D;54385;53.516;49.456;2022-12-18T06:31:04;0.20;86.27
67555;HTU21D;54385;53.516;49.456;2022-12-18T06:33:32;0.19;86.20
67555;HTU21D;54385;53.516;49.456;2022-12-18T06:36:06;0.21;86.13
67555;HTU21D;54385;53.516;49.456;2022-12-18T06:38:35;0.18;85.66
67555;HTU21D;54385;53.516;49.456;2022-12-18T06:41:09;0.21;85.45
67555;HTU21D;54385;53.516;49.456;2022-12-18T06:43:36;0.09;85.68
67555;HTU21D;54385;53.516;49.456;2022-12-18T06:46:03;0.06;85.87
67555;HTU21D;54385;53.516;49.456;2022-12-18T06:48:30;0.01;85.93
67555;HTU21D;54385;53.516;49.456;2022-12-18T06:50:57;-0.02;85.80
67555;HTU21D;54385;53.516;49.456;2022-12-18T06:53:23;0.01;85.88
67555;HTU21D;54385;53.516;49.456;2022-12-18T06:55:50;0.03;85.63
67555;HTU21D;54385;53.516;49.456;2022-12-18T06:58:17;0.03;85.42
67555;HTU21D;54385;53.516;49.456;2022-12-18T07:00:43;0.02;85.54
67555;HTU21D;54385;53.516;49.456;2022-12-18T07:03:10;-0.01;85.26
67555;HTU21D;54385;53.516;49.456;2022-12-18T07:05:40;-0.01;85.09
67555;HTU21D;54385;53.516;49.456;2022-12-18T07:08:06;-0.06;85.24
67555;HTU21D;54385;53.516;49.456;2022-12-18T07:10:33;-0.08;85.35
67555;HTU21D;54385;53.516;49.456;2022-12-18T07:12:59;-0.05;85.21
67555;HTU21D;54385;53.516;49.456;2022-12-18T07:15:25;-0.03;84.97
67555;HTU21D;54385;53.516;49.456;2022-12-18T07:17:52;0.02;85.01
67555;HTU21D;54385;53.516;49.456;2022-12-18T07:20:18;0.01;84.95
67555;HTU21D;54385;53.516;49.456;2022-12-18T07:22:45;0.01;84.77
67555;HTU21D;54385;53.516;49.456;2022-12-18T07:25:11;-0.01;84.57
67555;HTU21D;54385;53.516;49.456;2022-12-18T07:27:37;-0.03;84.76
67555;HTU21D;54385;53.516;49.456;2022-12-18T07:30:04;-0.01;84.68
67555;HTU21D;54385;53.516;49.456;2022-12-18T07:32:31;-0.01;84.75
67555;HTU21D;54385;53.516;49.456;2022-12-18T07:34:57;-0.01;85.01
67555;HTU21D;54385;53.516;49.456;2022-12-18T07:37:23;-0.02;84.30
67555;HTU21D;54385;53.516;49.456;2022-12-18T07:39:50;-0.06;84.31
67555;HTU21D;54385;53.516;49.456;2022-12-18T07:42:16;-0.05;84.06
67555;HTU21D;54385;53.516;49.456;2022-12-18T07:44:58;-0.07;84.68
67555;HTU21D;54385;53.516;49.456;2022-12-18T07:47:25;-0.00;84.45
67555;HTU21D;54385;53.516;49.456;2022-12-18T07:49:52;-0.02;84.48
67555;HTU21D;54385;53.516;49.456;2022-12-18T07:52:18;0.02;84.29
67555;HTU21D;54385;53.516;49.456;2022-12-18T07:54:44;0.03;84.58
67555;HTU21D;54385;53.516;49.456;2022-12-18T07:57:11;0.09;84.65
67555;HTU21D;54385;53.516;49.456;2022-12-18T07:59:37;0.07;84.29
67555;HTU21D;54385;53.516;49.456;2022-12-18T08:02:04;0.10;84.46
67555;HTU21D;54385;53.516;49.456;2022-12-18T08:04:30;0.15;84.56
67555;HTU21D;54385;53.516;49.456;2022-12-18T08:06:57;0.16;84.41
67555;HTU21D;54385;53.516;49.456;2022-12-18T08:09:23;0.14;84.68
67555;HTU21D;54385;53.516;49.456;2022-12-18T08:11:49;0.14;84.70
67555;HTU21D;54385;53.516;49.456;2022-12-18T08:14:16;0.14;85.02
67555;HTU21D;54385;53.516;49.456;2022-12-18T08:16:42;0.14;85.04
67555;HTU21D;54385;53.516;49.456;2022-12-18T08:19:10;0.18;85.09
67555;HTU21D;54385;53.516;49.456;2022-12-18T08:21:37;0.20;85.30
67555;HTU21D;54385;53.516;49.456;2022-12-18T08:24:03;0.21;85.43
67555;HTU21D;54385;53.516;49.456;2022-12-18T08:26:31;0.31;85.89
67555;HTU21D;54385;53.516;49.456;2022-12-18T08:28:59;0.36;85.98
67555;HTU21D;54385;53.516;49.456;2022-12-18T08:31:26;0.32;85.98
67555;HTU21D;54385;53.516;49.456;2022-12-18T08:33:54;0.30;86.51
67555;HTU21D;54385;53.516;49.456;2022-12-18T08:36:21;0.31;86.82
67555;HTU21D;54385;53.516;49.456;2022-12-18T08:38:48;0.32;87.06
67555;HTU21D;54385;53.516;49.456;2022-12-18T08:41:15;0.33;87.35
67555;HTU21D;54385;53.516;49.456;2022-12-18T08:43:42;0.33;87.06
67555;HTU21D;54385;53.516;49.456;2022-12-18T08:46:32;0.34;87.28
67555;HTU21D;54385;53.516;49.456;2022-12-18T08:49:00;0.32;87.47
67555;HTU21D;54385;53.516;49.456;2022-12-18T08:51:26;0.33;87.62
67555;HTU21D;54385;53.516;49.456;2022-12-18T08:53:52;0.30;87.38
67555;HTU21D;54385;53.516;49.456;2022-12-18T08:56:19;0.33;87.76
67555;HTU21D;54385;53.516;49.456;2022-12-18T08:58:45;0.34;87.89
67555;HTU21D;54385;53.516;49.456;2022-12-18T09:01:12;0.35;87.86
67555;HTU21D;54385;53.516;49.456;2022-12-18T09:03:39;0.37;87.79
67555;HTU21D;54385;53.516;49.456;2022-12-18T09:06:07;0.35;87.94
67555;HTU21D;54385;53.516;49.456;2022-12-18T09:08:33;0.36;87.92
67555;HTU21D;54385;53.516;49.456;2022-12-18T09:11:02;0.37;87.99
67555;HTU21D;54385;53.516;49.456;2022-12-18T09:13:28;0.37;88.11
67555;HTU21D;54385;53.516;49.456;2022-12-18T09:15:55;0.38;88.26
67555;HTU21D;54385;53.516;49.456;2022-12-18T09:18:23;0.39;88.38
67555;HTU21D;54385;53.516;49.456;2022-12-18T09:20:49;0.39;88.47
67555;HTU21D;54385;53.516;49.456;2022-12-18T09:23:21;0.42;88.64
67555;HTU21D;54385;53.516;49.456;2022-12-18T09:25:48;0.39;88.38
67555;HTU21D;54385;53.516;49.456;2022-12-18T09:28:16;0.39;88.50
67555;HTU21D;54385;53.516;49.456;2022-12-18T09:30:48;0.40;88.64
67555;HTU21D;54385;53.516;49.456;2022-12-18T09:33:15;0.42;88.38
67555;HTU21D;54385;53.516;49.456;2022-12-18T09:35:43;0.47;88.18
67555;HTU21D;54385;53.516;49.456;2022-12-18T09:38:13;0.49;87.71
67555;HTU21D;54385;53.516;49.456;2022-12-18T09:40:46;0.50;87.43
67555;HTU21D;54385;53.516;49.456;2022-12-18T09:43:18;0.49;87.64
67555;HTU21D;54385;53.516;49.456;2022-12-18T09:45:51;0.50;87.41
67555;HTU21D;54385;53.516;49.456;2022-12-18T09:48:26;0.50;87.57
67555;HTU21D;54385;53.516;49.456;2022-12-18T09:50:57;0.47;87.65
67555;HTU21D;54385;53.516;49.456;2022-12-18T09:53:29;0.47;87.90
67555;HTU21D;54385;53.516;49.456;2022-12-18T09:55:58;0.50;87.88
67555;HTU21D;54385;53.516;49.456;2022-12-18T10:01:00;0.53;88.49
67555;HTU21D;54385;53.516;49.456;2022-12-18T10:03:27;0.52;88.43
67555;HTU21D;54385;53.516;49.456;2022-12-18T10:09:22;0.54;87.95
67555;HTU21D;54385;53.516;49.456;2022-12-18T10:27:58;0.74;88.10
67555;HTU21D;54385;53.516;49.456;2022-12-18T10:30:26;0.77;88.32
67555;HTU21D;54385;53.516;49.456;2022-12-18T10:32:53;0.78;88.21
67555;HTU21D;54385;53.516;49.456;2022-12-18T10:35:27;0.77;88.03
67555;HTU21D;54385;53.516;49.456;2022-12-18T10:40:53;0.79;87.87
67555;HTU21D;54385;53.516;49.456;2022-12-18T10:43:39;0.79;87.83
67555;HTU21D;54385;53.516;49.456;2022-12-18T10:51:06;0.78;88.75
67555;HTU21D;54385;53.516;49.456;2022-12-18T10:53:34;0.79;88.83
67555;HTU21D;54385;53.516;49.456;2022-12-18T10:56:03;0.83;88.85
67555;HTU21D;54385;53.516;49.456;2022-12-18T10:58:36;0.82;88.86
67555;HTU21D;54385;53.516;49.456;2022-12-18T11:01:14;0.82;88.67
67555;HTU21D;54385;53.516;49.456;2022-12-18T11:06:18;0.86;88.70
67555;HTU21D;54385;53.516;49.456;2022-12-18T11:09:19;0.87;88.59
67555;HTU21D;54385;53.516;49.456;2022-12-18T11:11:49;0.84;88.53
67555;HTU21D;54385;53.516;49.456;2022-12-18T11:14:25;0.83;88.64
67555;HTU21D;54385;53.516;49.456;2022-12-18T11:16:53;0.82;88.76
67555;HTU21D;54385;53.516;49.456;2022-12-18T11:19:30;0.83;88.54
67555;HTU21D;54385;53.516;49.456;2022-12-18T11:21:58;0.81;88.67
67555;HTU21D;54385;53.516;49.456;2022-12-18T11:24:33;0.87;88.66
67555;HTU21D;54385;53.516;49.456;2022-12-18T11:27:16;0.91;88.41
67555;HTU21D;54385;53.516;49.456;2022-12-18T11:29:43;0.90;88.08
67555;HTU21D;54385;53.516;49.456;2022-12-18T11:32:33;0.89;87.55
67555;HTU21D;54385;53.516;49.456;2022-12-18T11:37:32;0.94;87.40
67555;HTU21D;54385;53.516;49.456;2022-12-18T11:40:20;0.98;87.54
67555;HTU21D;54385;53.516;49.456;2022-12-18T11:42:54;1.04;87.38
67555;HTU21D;54385;53.516;49.456;2022-12-18T11:45:27;1.05;87.51
67555;HTU21D;54385;53.516;49.456;2022-12-18T11:48:17;1.08;87.51
67555;HTU21D;54385;53.516;49.456;2022-12-18T11:50:56;1.08;87.56
67555;HTU21D;54385;53.516;49.456;2022-12-18T11:53:25;1.10;87.53
67555;HTU21D;54385;53.516;49.456;2022-12-18T11:56:29;1.09;87.65
67555;HTU21D;54385;53.516;49.456;2022-12-18T11:59:20;1.07;87.71
67555;HTU21D;54385;53.516;49.456;2022-12-18T12:01:53;1.07;87.68
67555;HTU21D;54385;53.516;49.456;2022-12-18T12:11:02;1.11;87.67
67555;HTU21D;54385;53.516;49.456;2022-12-18T12:12:57;1.10;87.54
67555;HTU21D;54385;53.516;49.456;2022-12-18T12:21:08;1.19;87.44
67555;HTU21D;54385;53.516;49.456;2022-12-18T12:26:50;1.20;87.39
67555;HTU21D;54385;53.516;49.456;2022-12-18T12:29:34;1.20;87.48
67555;HTU21D;54385;53.516;49.456;2022-12-18T12:35:03;1.22;87.36
67555;HTU21D;54385;53.516;49.456;2022-12-18T12:38:05;1.20;87.33
67555;HTU21D;54385;53.516;49.456;2022-12-18T12:40:42;1.20;87.19
67555;HTU21D;54385;53.516;49.456;2022-12-18T12:46:10;1.18;87.30
67555;HTU21D;54385;53.516;49.456;2022-12-18T12:48:55;1.19;87.22
67555;HTU21D;54385;53.516;49.456;2022-12-18T12:51:29;1.19;87.22
67555;HTU21D;54385;53.516;49.456;2022-12-18T12:53:57;1.21;87.07
67555;HTU21D;54385;53.516;49.456;2022-12-18T12:56:39;1.22;86.92
67555;HTU21D;54385;53.516;49.456;2022-12-18T12:59:22;1.25;86.84
67555;HTU21D;54385;53.516;49.456;2022-12-18T13:01:59;1.26;86.93
67555;HTU21D;54385;53.516;49.456;2022-12-18T13:12:32;1.34;87.54
67555;HTU21D;54385;53.516;49.456;2022-12-18T13:18:22;1.33;87.99
67555;HTU21D;54385;53.516;49.456;2022-12-18T13:25:50;1.26;88.13
67555;HTU21D;54385;53.516;49.456;2022-12-18T13:34:27;1.33;88.09
67555;HTU21D;54385;53.516;49.456;2022-12-18T13:36:57;1.36;87.92
67555;HTU21D;54385;53.516;49.456;2022-12-18T13:39:42;1.36;87.91
67555;HTU21D;54385;53.516;49.456;2022-12-18T13:44:37;1.38;87.93
67555;HTU21D;54385;53.516;49.456;2022-12-18T13:47:27;1.40;87.94
67555;HTU21D;54385;53.516;49.456;2022-12-18T13:49:57;1.36;88.12
67555;HTU21D;54385;53.516;49.456;2022-12-18T13:52:26;1.33;88.36
67555;HTU21D;54385;53.516;49.456;2022-12-18T13:54:56;1.35;88.36
67555;HTU21D;54385;53.516;49.456;2022-12-18T13:57:34;1.36;88.39
67555;HTU21D;54385;53.516;49.456;2022-12-18T14:00:25;1.38;88.29
67555;HTU21D;54385;53.516;49.456;2022-12-18T14:02:51;1.37;88.41
67555;HTU21D;54385;53.516;49.456;2022-12-18T14:05:24;1.34;88.57
67555;HTU21D;54385;53.516;49.456;2022-12-18T14:07:52;1.33;88.59
67555;HTU21D;54385;53.516;49.456;2022-12-18T14:10:20;1.33;88.63
67555;HTU21D;54385;53.516;49.456;2022-12-18T14:12:49;1.36;88.68
67555;HTU21D;54385;53.516;49.456;2022-12-18T14:20:25;1.39;88.61
67555;HTU21D;54385;53.516;49.456;2022-12-18T14:22:52;1.41;88.57
67555;HTU21D;54385;53.516;49.456;2022-12-18T14:25:21;1.40;88.58
67555;HTU21D;54385;53.516;49.456;2022-12-18T14:27:52;1.38;88.67
67555;HTU21D;54385;53.516;49.456;2022-12-18T14:30:27;1.40;88.65
67555;HTU21D;54385;53.516;49.456;2022-12-18T14:36:03;1.42;88.62
67555;HTU21D;54385;53.516;49.456;2022-12-18T14:38:38;1.43;88.64
67555;HTU21D;54385;53.516;49.456;2022-12-18T14:41:14;1.41;88.57
67555;HTU21D;54385;53.516;49.456;2022-12-18T14:43:43;1.40;88.52
67555;HTU21D;54385;53.516;49.456;2022-12-18T14:49:34;1.45;88.50
67555;HTU21D;54385;53.516;49.456;2022-12-18T14:52:05;1.49;88.54
67555;HTU21D;54385;53.516;49.456;2022-12-18T14:54:34;1.48;88.52
67555;HTU21D;54385;53.516;49.456;2022-12-18T14:59:49;1.45;88.75
67555;HTU21D;54385;53.516;49.456;2022-12-18T15:02:22;1.47;88.70
67555;HTU21D;54385;53.516;49.456;2022-12-18T15:05:04;1.50;88.59
67555;HTU21D;54385;53.516;49.456;2022-12-18T15:07:42;1.48;88.47
67555;HTU21D;54385;53.516;49.456;2022-12-18T15:20:48;1.51;88.00
67555;HTU21D;54385;53.516;49.456;2022-12-18T15:26:07;1.63;88.17
67555;HTU21D;54385;53.516;49.456;2022-12-18T15:36:34;1.66;87.86
67555;HTU21D;54385;53.516;49.456;2022-12-18T15:39:05;1.66;87.72
67555;HTU21D;54385;53.516;49.456;2022-12-18T15:41:35;1.69;87.71
67555;HTU21D;54385;53.516;49.456;2022-12-18T15:44:03;1.71;87.38
67555;HTU21D;54385;53.516;49.456;2022-12-18T15:46:30;1.69;87.19
67555;HTU21D;54385;53.516;49.456;2022-12-18T15:48:57;1.70;87.19
67555;HTU21D;54385;53.516;49.456;2022-12-18T15:51:24;1.72;87.11
67555;HTU21D;54385;53.516;49.456;2022-12-18T15:53:55;1.70;87.09
67555;HTU21D;54385;53.516;49.456;2022-12-18T15:56:22;1.70;87.06
67555;HTU21D;54385;53.516;49.456;2022-12-18T15:59:17;1.76;86.92
67555;HTU21D;54385;53.516;49.456;2022-12-18T16:01:49;1.75;86.96
67555;HTU21D;54385;53.516;49.456;2022-12-18T16:04:18;1.79;86.78
67555;HTU21D;54385;53.516;49.456;2022-12-18T16:06:48;1.79;86.70
67555;HTU21D;54385;53.516;49.456;2022-12-18T16:09:15;1.83;86.68
67555;HTU21D;54385;53.516;49.456;2022-12-18T16:11:43;1.85;86.44
67555;HTU21D;54385;53.516;49.456;2022-12-18T16:14:18;1.85;86.51
67555;HTU21D;54385;53.516;49.456;2022-12-18T16:16:47;1.80;86.74
67555;HTU21D;54385;53.516;49.456;2022-12-18T16:19:14;1.75;87.14
67555;HTU21D;54385;53.516;49.456;2022-12-18T16:21:42;1.77;87.22
67555;HTU21D;54385;53.516;49.456;2022-12-18T16:24:30;1.79;87.31
67555;HTU21D;54385;53.516;49.456;2022-12-18T16:26:58;1.79;87.51
67555;HTU21D;54385;53.516;49.456;2022-12-18T16:29:26;1.75;87.74
67555;HTU21D;54385;53.516;49.456;2022-12-18T16:32:00;1.72;88.09
67555;HTU21D;54385;53.516;49.456;2022-12-18T16:34:31;1.79;88.02
67555;HTU21D;54385;53.516;49.456;2022-12-18T16:37:00;1.82;88.10
67555;HTU21D;54385;53.516;49.456;2022-12-18T16:39:27;1.77;88.22
67555;HTU21D;54385;53.516;49.456;2022-12-18T16:41:54;1.73;88.57
67555;HTU21D;54385;53.516;49.456;2022-12-18T16:44:21;1.78;88.57
67555;HTU21D;54385;53.516;49.456;2022-12-18T16:46:47;1.84;88.38
67555;HTU21D;54385;53.516;49.456;2022-12-18T16:49:16;1.79;88.70
67555;HTU21D;54385;53.516;49.456;2022-12-18T16:51:42;1.73;88.78
67555;HTU21D;54385;53.516;49.456;2022-12-18T16:54:09;1.76;89.05
67555;HTU21D;54385;53.516;49.456;2022-12-18T16:56:35;1.78;88.95
67555;HTU21D;54385;53.516;49.456;2022-12-18T16:59:04;1.77;88.80
67555;HTU21D;54385;53.516;49.456;2022-12-18T17:01:31;1.75;88.80
67555;HTU21D;54385;53.516;49.456;2022-12-18T17:04:11;1.72;89.05
67555;HTU21D;54385;53.516;49.456;2022-12-18T17:06:42;1.78;88.92
67555;HTU21D;54385;53.516;49.456;2022-12-18T17:09:14;1.80;88.78
67555;HTU21D;54385;53.516;49.456;2022-12-18T17:11:42;1.82;88.89
67555;HTU21D;54385;53.516;49.456;2022-12-18T17:14:14;1.90;88.64
67555;HTU21D;54385;53.516;49.456;2022-12-18T17:16:42;1.87;88.36
67555;HTU21D;54385;53.516;49.456;2022-12-18T17:19:09;1.88;88.41
67555;HTU21D;54385;53.516;49.456;2022-12-18T17:21:37;1.94;88.19
67555;HTU21D;54385;53.516;49.456;2022-12-18T17:24:03;1.90;88.47
67555;HTU21D;54385;53.516;49.456;2022-12-18T17:26:30;1.84;88.41
67555;HTU21D;54385;53.516;49.456;2022-12-18T17:28:58;1.90;88.50
67555;HTU21D;54385;53.516;49.456;2022-12-18T17:31:27;1.93;88.45
67555;HTU21D;54385;53.516;49.456;2022-12-18T17:33:54;1.87;88.38
67555;HTU21D;54385;53.516;49.456;2022-12-18T17:36:22;1.86;88.59
67555;HTU21D;54385;53.516;49.456;2022-12-18T17:38:56;1.82;88.60
67555;HTU21D;54385;53.516;49.456;2022-12-18T17:41:24;1.80;88.80
67555;HTU21D;54385;53.516;49.456;2022-12-18T17:44:00;1.80;88.92
67555;HTU21D;54385;53.516;49.456;2022-12-18T17:46:29;1.84;89.03
67555;HTU21D;54385;53.516;49.456;2022-12-18T17:49:00;1.84;89.09
67555;HTU21D;54385;53.516;49.456;2022-12-18T17:51:27;1.82;89.16
67555;HTU21D;54385;53.516;49.456;2022-12-18T17:53:54;1.84;89.37
67555;HTU21D;54385;53.516;49.456;2022-12-18T17:56:23;1.82;89.28